Terminal Aerodrome Forecast
Issued by NWS Paducah, KY

Home | Current Version | Previous Version | Text Only | Print | Product List | Glossary On
Versions: 1 2 3 4 5 6 7 8 9 10 11 12 13 14 15 16 17 18 19 20 21 22 23 24
708
FTUS43 KPAH 260711 AAA
TAFPAH
TAF AMD
KPAH 260711Z 2607/2706 VRB03KT 4SM BR SCT200
     FM261300 20005KT P6SM FEW020
     FM261700 21008KT P6SM SCT040=

USA.gov is the U.S. government's official web portal to all federal, state and local government web resources and services.